sensor_id;sensor_type;location;lat;lon;timestamp;P1;P2;P0
72329;PMS5003;69154;52.076;5.110;2023-05-10T00:01:20;57;48;
72329;PMS5003;69154;52.076;5.110;2023-05-10T00:03:45;56;52;
72329;PMS5003;69154;52.076;5.110;2023-05-10T00:06:10;58;53;
72329;PMS5003;69154;52.076;5.110;2023-05-10T00:08:35;65;54;
72329;PMS5003;69154;52.076;5.110;2023-05-10T00:11:01;64;54;
72329;PMS5003;69154;52.076;5.110;2023-05-10T00:13:26;58;48;
72329;PMS5003;69154;52.076;5.110;2023-05-10T00:15:52;61;54;
72329;PMS5003;69154;52.076;5.110;2023-05-10T00:18:17;49;45;
72329;PMS5003;69154;52.076;5.110;2023-05-10T00:20:42;60;56;
72329;PMS5003;69154;52.076;5.110;2023-05-10T00:23:07;52;49;
72329;PMS5003;69154;52.076;5.110;2023-05-10T00:25:33;60;53;
72329;PMS5003;69154;52.076;5.110;2023-05-10T00:27:58;64;54;
72329;PMS5003;69154;52.076;5.110;2023-05-10T00:30:24;62;59;
72329;PMS5003;69154;52.076;5.110;2023-05-10T00:32:49;57;53;
72329;PMS5003;69154;52.076;5.110;2023-05-10T00:35:15;58;49;
72329;PMS5003;69154;52.076;5.110;2023-05-10T00:37:40;55;53;
72329;PMS5003;69154;52.076;5.110;2023-05-10T00:40:06;68;60;
72329;PMS5003;69154;52.076;5.110;2023-05-10T00:42:31;70;60;
72329;PMS5003;69154;52.076;5.110;2023-05-10T00:44:57;52;50;
72329;PMS5003;69154;52.076;5.110;2023-05-10T00:47:22;62;57;
72329;PMS5003;69154;52.076;5.110;2023-05-10T00:49:47;59;49;
72329;PMS5003;69154;52.076;5.110;2023-05-10T00:52:13;64;52;
72329;PMS5003;69154;52.076;5.110;2023-05-10T00:54:38;48;45;
72329;PMS5003;69154;52.076;5.110;2023-05-10T00:57:03;53;50;
72329;PMS5003;69154;52.076;5.110;2023-05-10T00:59:28;60;53;
72329;PMS5003;69154;52.076;5.110;2023-05-10T01:01:54;66;56;
72329;PMS5003;69154;52.076;5.110;2023-05-10T01:04:20;60;52;
72329;PMS5003;69154;52.076;5.110;2023-05-10T01:06:46;56;51;
72329;PMS5003;69154;52.076;5.110;2023-05-10T01:09:11;55;46;
72329;PMS5003;69154;52.076;5.110;2023-05-10T01:11:38;56;50;
72329;PMS5003;69154;52.076;5.110;2023-05-10T01:14:03;56;50;
72329;PMS5003;69154;52.076;5.110;2023-05-10T01:16:29;61;54;
72329;PMS5003;69154;52.076;5.110;2023-05-10T01:18:54;56;52;
72329;PMS5003;69154;52.076;5.110;2023-05-10T01:21:22;58;48;
72329;PMS5003;69154;52.076;5.110;2023-05-10T01:23:55;52;49;
72329;PMS5003;69154;52.076;5.110;2023-05-10T01:26:14;60;56;
72329;PMS5003;69154;52.076;5.110;2023-05-10T01:28:39;52;48;
72329;PMS5003;69154;52.076;5.110;2023-05-10T01:31:03;59;52;
72329;PMS5003;69154;52.076;5.110;2023-05-10T01:33:27;61;56;
72329;PMS5003;69154;52.076;5.110;2023-05-10T01:35:54;72;60;
72329;PMS5003;69154;52.076;5.110;2023-05-10T01:38:18;62;54;
72329;PMS5003;69154;52.076;5.110;2023-05-10T01:40:46;64;57;
72329;PMS5003;69154;52.076;5.110;2023-05-10T01:43:16;58;53;
72329;PMS5003;69154;52.076;5.110;2023-05-10T01:45:36;61;49;
72329;PMS5003;69154;52.076;5.110;2023-05-10T01:48:03;70;60;
72329;PMS5003;69154;52.076;5.110;2023-05-10T01:50:27;58;51;
72329;PMS5003;69154;52.076;5.110;2023-05-10T01:52:51;58;53;
72329;PMS5003;69154;52.076;5.110;2023-05-10T01:55:16;73;63;
72329;PMS5003;69154;52.076;5.110;2023-05-10T01:57:42;62;57;
72329;PMS5003;69154;52.076;5.110;2023-05-10T02:00:07;62;56;
72329;PMS5003;69154;52.076;5.110;2023-05-10T02:02:33;69;60;
72329;PMS5003;69154;52.076;5.110;2023-05-10T02:04:58;60;49;
72329;PMS5003;69154;52.076;5.110;2023-05-10T02:07:23;60;50;
72329;PMS5003;69154;52.076;5.110;2023-05-10T02:09:48;69;53;
72329;PMS5003;69154;52.076;5.110;2023-05-10T02:12:13;66;63;
72329;PMS5003;69154;52.076;5.110;2023-05-10T02:14:39;67;54;
72329;PMS5003;69154;52.076;5.110;2023-05-10T02:17:05;67;59;
72329;PMS5003;69154;52.076;5.110;2023-05-10T02:19:31;69;56;
72329;PMS5003;69154;52.076;5.110;2023-05-10T02:21:55;73;58;
72329;PMS5003;69154;52.076;5.110;2023-05-10T02:24:20;72;56;
72329;PMS5003;69154;52.076;5.110;2023-05-10T02:26:46;64;56;
72329;PMS5003;69154;52.076;5.110;2023-05-10T02:29:11;78;67;
72329;PMS5003;69154;52.076;5.110;2023-05-10T02:31:36;65;62;
72329;PMS5003;69154;52.076;5.110;2023-05-10T02:34:02;70;60;
72329;PMS5003;69154;52.076;5.110;2023-05-10T02:36:28;78;64;
72329;PMS5003;69154;52.076;5.110;2023-05-10T02:38:54;71;61;
72329;PMS5003;69154;52.076;5.110;2023-05-10T02:41:19;74;64;
72329;PMS5003;69154;52.076;5.110;2023-05-10T02:43:45;75;65;
72329;PMS5003;69154;52.076;5.110;2023-05-10T02:46:10;73;66;
72329;PMS5003;69154;52.076;5.110;2023-05-10T02:48:36;71;57;
72329;PMS5003;69154;52.076;5.110;2023-05-10T02:51:03;69;55;
72329;PMS5003;69154;52.076;5.110;2023-05-10T02:53:30;69;64;
72329;PMS5003;69154;52.076;5.110;2023-05-10T02:55:53;73;62;
72329;PMS5003;69154;52.076;5.110;2023-05-10T02:58:18;65;61;
72329;PMS5003;69154;52.076;5.110;2023-05-10T03:00:43;69;63;
72329;PMS5003;69154;52.076;5.110;2023-05-10T03:03:08;64;60;
72329;PMS5003;69154;52.076;5.110;2023-05-10T03:05:33;77;65;
72329;PMS5003;69154;52.076;5.110;2023-05-10T03:07:59;64;59;
72329;PMS5003;69154;52.076;5.110;2023-05-10T03:10:26;62;55;
72329;PMS5003;69154;52.076;5.110;2023-05-10T03:12:54;62;52;
72329;PMS5003;69154;52.076;5.110;2023-05-10T03:15:17;66;60;
72329;PMS5003;69154;52.076;5.110;2023-05-10T03:17:45;63;56;
72329;PMS5003;69154;52.076;5.110;2023-05-10T03:20:08;61;55;
72329;PMS5003;69154;52.076;5.110;2023-05-10T03:22:34;64;53;
72329;PMS5003;69154;52.076;5.110;2023-05-10T03:24:58;60;55;
72329;PMS5003;69154;52.076;5.110;2023-05-10T03:27:25;65;54;
72329;PMS5003;69154;52.076;5.110;2023-05-10T03:29:50;65;54;
72329;PMS5003;69154;52.076;5.110;2023-05-10T03:32:15;70;59;
72329;PMS5003;69154;52.076;5.110;2023-05-10T03:34:41;57;52;
72329;PMS5003;69154;52.076;5.110;2023-05-10T03:37:06;69;61;
72329;PMS5003;69154;52.076;5.110;2023-05-10T03:39:31;65;57;
72329;PMS5003;69154;52.076;5.110;2023-05-10T03:41:57;69;63;
72329;PMS5003;69154;52.076;5.110;2023-05-10T03:44:22;69;62;
72329;PMS5003;69154;52.076;5.110;2023-05-10T03:46:47;73;64;
72329;PMS5003;69154;52.076;5.110;2023-05-10T03:49:13;76;64;
72329;PMS5003;69154;52.076;5.110;2023-05-10T03:51:39;74;65;
72329;PMS5003;69154;52.076;5.110;2023-05-10T03:54:04;77;65;
72329;PMS5003;69154;52.076;5.110;2023-05-10T03:56:29;78;65;
72329;PMS5003;69154;52.076;5.110;2023-05-10T03:58:55;66;58;
72329;PMS5003;69154;52.076;5.110;2023-05-10T04:01:21;67;62;
72329;PMS5003;69154;52.076;5.110;2023-05-10T04:03:46;64;54;
72329;PMS5003;69154;52.076;5.110;2023-05-10T04:06:12;72;62;
72329;PMS5003;69154;52.076;5.110;2023-05-10T04:08:37;82;64;
72329;PMS5003;69154;52.076;5.110;2023-05-10T04:11:06;70;61;
72329;PMS5003;69154;52.076;5.110;2023-05-10T04:13:28;73;67;
72329;PMS5003;69154;52.076;5.110;2023-05-10T04:15:53;80;64;
72329;PMS5003;69154;52.076;5.110;2023-05-10T04:18:19;79;70;
72329;PMS5003;69154;52.076;5.110;2023-05-10T04:20:45;79;70;
72329;PMS5003;69154;52.076;5.110;2023-05-10T04:23:10;74;68;
72329;PMS5003;69154;52.076;5.110;2023-05-10T04:25:35;79;72;
72329;PMS5003;69154;52.076;5.110;2023-05-10T04:28:00;84;75;
72329;PMS5003;69154;52.076;5.110;2023-05-10T04:30:26;70;61;
72329;PMS5003;69154;52.076;5.110;2023-05-10T04:32:51;74;70;
72329;PMS5003;69154;52.076;5.110;2023-05-10T04:35:16;79;71;
72329;PMS5003;69154;52.076;5.110;2023-05-10T04:37:42;78;67;
72329;PMS5003;69154;52.076;5.110;2023-05-10T04:40:07;75;64;
72329;PMS5003;69154;52.076;5.110;2023-05-10T04:42:32;67;66;
72329;PMS5003;69154;52.076;5.110;2023-05-10T04:44:57;81;70;
72329;PMS5003;69154;52.076;5.110;2023-05-10T04:47:22;73;69;
72329;PMS5003;69154;52.076;5.110;2023-05-10T04:49:48;78;70;
72329;PMS5003;69154;52.076;5.110;2023-05-10T04:52:14;68;63;
72329;PMS5003;69154;52.076;5.110;2023-05-10T04:54:40;76;65;
72329;PMS5003;69154;52.076;5.110;2023-05-10T04:57:05;70;64;
72329;PMS5003;69154;52.076;5.110;2023-05-10T04:59:30;66;60;
72329;PMS5003;69154;52.076;5.110;2023-05-10T05:01:55;75;66;
72329;PMS5003;69154;52.076;5.110;2023-05-10T05:04:21;76;70;
72329;PMS5003;69154;52.076;5.110;2023-05-10T05:06:46;80;74;
72329;PMS5003;69154;52.076;5.110;2023-05-10T05:09:12;94;75;
72329;PMS5003;69154;52.076;5.110;2023-05-10T05:11:37;76;67;
72329;PMS5003;69154;52.076;5.110;2023-05-10T05:14:02;73;68;
72329;PMS5003;69154;52.076;5.110;2023-05-10T05:16:29;74;60;
72329;PMS5003;69154;52.076;5.110;2023-05-10T05:18:53;71;65;
72329;PMS5003;69154;52.076;5.110;2023-05-10T05:21:19;69;62;
72329;PMS5003;69154;52.076;5.110;2023-05-10T05:23:44;72;65;
72329;PMS5003;69154;52.076;5.110;2023-05-10T05:26:10;67;59;
72329;PMS5003;69154;52.076;5.110;2023-05-10T05:28:35;61;55;
72329;PMS5003;69154;52.076;5.110;2023-05-10T05:31:00;58;52;
72329;PMS5003;69154;52.076;5.110;2023-05-10T05:33:25;57;49;
72329;PMS5003;69154;52.076;5.110;2023-05-10T05:35:51;62;55;
72329;PMS5003;69154;52.076;5.110;2023-05-10T05:38:17;60;55;
72329;PMS5003;69154;52.076;5.110;2023-05-10T05:40:42;52;45;
72329;PMS5003;69154;52.076;5.110;2023-05-10T05:43:07;48;43;
72329;PMS5003;69154;52.076;5.110;2023-05-10T05:45:33;49;46;
72329;PMS5003;69154;52.076;5.110;2023-05-10T05:47:59;48;44;
72329;PMS5003;69154;52.076;5.110;2023-05-10T05:50:25;45;43;
72329;PMS5003;69154;52.076;5.110;2023-05-10T05:52:50;46;43;
72329;PMS5003;69154;52.076;5.110;2023-05-10T05:55:15;43;39;
72329;PMS5003;69154;52.076;5.110;2023-05-10T05:57:40;47;40;
72329;PMS5003;69154;52.076;5.110;2023-05-10T06:00:06;42;38;
72329;PMS5003;69154;52.076;5.110;2023-05-10T06:02:31;46;41;
72329;PMS5003;69154;52.076;5.110;2023-05-10T06:04:57;40;37;
72329;PMS5003;69154;52.076;5.110;2023-05-10T06:07:22;41;38;
72329;PMS5003;69154;52.076;5.110;2023-05-10T06:09:47;35;32;
72329;PMS5003;69154;52.076;5.110;2023-05-10T06:12:12;41;38;
72329;PMS5003;69154;52.076;5.110;2023-05-10T06:14:38;37;33;
72329;PMS5003;69154;52.076;5.110;2023-05-10T06:17:03;40;38;
72329;PMS5003;69154;52.076;5.110;2023-05-10T06:19:29;28;26;
72329;PMS5003;69154;52.076;5.110;2023-05-10T06:21:55;39;34;
72329;PMS5003;69154;52.076;5.110;2023-05-10T06:24:20;32;31;
72329;PMS5003;69154;52.076;5.110;2023-05-10T06:26:45;38;35;
72329;PMS5003;69154;52.076;5.110;2023-05-10T06:29:11;32;26;
72329;PMS5003;69154;52.076;5.110;2023-05-10T06:31:37;28;26;
72329;PMS5003;69154;52.076;5.110;2023-05-10T06:34:02;28;24;
72329;PMS5003;69154;52.076;5.110;2023-05-10T06:36:27;27;25;
72329;PMS5003;69154;52.076;5.110;2023-05-10T06:38:53;27;25;
72329;PMS5003;69154;52.076;5.110;2023-05-10T06:41:18;28;25;
72329;PMS5003;69154;52.076;5.110;2023-05-10T06:43:44;22;21;
72329;PMS5003;69154;52.076;5.110;2023-05-10T06:46:09;23;21;
72329;PMS5003;69154;52.076;5.110;2023-05-10T06:48:34;21;20;
72329;PMS5003;69154;52.076;5.110;2023-05-10T06:51:00;19;18;
72329;PMS5003;69154;52.076;5.110;2023-05-10T06:53:25;23;22;
72329;PMS5003;69154;52.076;5.110;2023-05-10T06:55:51;15;15;
72329;PMS5003;69154;52.076;5.110;2023-05-10T06:58:16;23;21;
72329;PMS5003;69154;52.076;5.110;2023-05-10T07:00:41;19;18;
72329;PMS5003;69154;52.076;5.110;2023-05-10T07:03:06;22;21;
72329;PMS5003;69154;52.076;5.110;2023-05-10T07:05:32;17;16;
72329;PMS5003;69154;52.076;5.110;2023-05-10T07:07:57;19;17;
72329;PMS5003;69154;52.076;5.110;2023-05-10T07:10:23;14;14;
72329;PMS5003;69154;52.076;5.110;2023-05-10T07:12:48;20;18;
72329;PMS5003;69154;52.076;5.110;2023-05-10T07:15:13;17;17;
72329;PMS5003;69154;52.076;5.110;2023-05-10T07:17:39;17;17;
72329;PMS5003;69154;52.076;5.110;2023-05-10T07:20:05;18;15;
72329;PMS5003;69154;52.076;5.110;2023-05-10T07:22:31;15;13;
72329;PMS5003;69154;52.076;5.110;2023-05-10T07:24:56;15;15;
72329;PMS5003;69154;52.076;5.110;2023-05-10T07:27:21;16;16;
72329;PMS5003;69154;52.076;5.110;2023-05-10T07:29:47;15;14;
72329;PMS5003;69154;52.076;5.110;2023-05-10T07:32:12;23;21;
72329;PMS5003;69154;52.076;5.110;2023-05-10T07:34:38;16;15;
72329;PMS5003;69154;52.076;5.110;2023-05-10T07:37:03;20;18;
72329;PMS5003;69154;52.076;5.110;2023-05-10T07:39:29;15;15;
72329;PMS5003;69154;52.076;5.110;2023-05-10T07:41:54;19;17;
72329;PMS5003;69154;52.076;5.110;2023-05-10T07:44:19;14;14;
72329;PMS5003;69154;52.076;5.110;2023-05-10T07:46:44;17;15;
72329;PMS5003;69154;52.076;5.110;2023-05-10T07:49:09;18;16;
72329;PMS5003;69154;52.076;5.110;2023-05-10T07:51:34;17;17;
72329;PMS5003;69154;52.076;5.110;2023-05-10T07:54:00;17;17;
72329;PMS5003;69154;52.076;5.110;2023-05-10T07:56:25;16;16;
72329;PMS5003;69154;52.076;5.110;2023-05-10T07:58:50;15;15;
72329;PMS5003;69154;52.076;5.110;2023-05-10T08:01:16;16;14;
72329;PMS5003;69154;52.076;5.110;2023-05-10T08:03:41;16;16;
72329;PMS5003;69154;52.076;5.110;2023-05-10T08:06:06;16;15;
72329;PMS5003;69154;52.076;5.110;2023-05-10T08:08:32;15;15;
72329;PMS5003;69154;52.076;5.110;2023-05-10T08:10:57;17;15;
72329;PMS5003;69154;52.076;5.110;2023-05-10T08:13:22;15;15;
72329;PMS5003;69154;52.076;5.110;2023-05-10T08:15:48;15;14;
72329;PMS5003;69154;52.076;5.110;2023-05-10T08:18:13;14;14;
72329;PMS5003;69154;52.076;5.110;2023-05-10T08:20:39;15;15;
72329;PMS5003;69154;52.076;5.110;2023-05-10T08:23:04;13;13;
72329;PMS5003;69154;52.076;5.110;2023-05-10T08:25:29;13;13;
72329;PMS5003;69154;52.076;5.110;2023-05-10T08:27:55;13;12;
72329;PMS5003;69154;52.076;5.110;2023-05-10T08:30:21;19;17;
72329;PMS5003;69154;52.076;5.110;2023-05-10T08:32:47;14;14;
72329;PMS5003;69154;52.076;5.110;2023-05-10T08:35:12;17;14;
72329;PMS5003;69154;52.076;5.110;2023-05-10T08:37:38;13;13;
72329;PMS5003;69154;52.076;5.110;2023-05-10T08:40:04;14;13;
72329;PMS5003;69154;52.076;5.110;2023-05-10T08:42:28;12;11;
72329;PMS5003;69154;52.076;5.110;2023-05-10T08:44:54;12;11;
72329;PMS5003;69154;52.076;5.110;2023-05-10T08:47:19;13;11;
72329;PMS5003;69154;52.076;5.110;2023-05-10T08:49:45;12;12;
72329;PMS5003;69154;52.076;5.110;2023-05-10T08:52:10;13;12;
72329;PMS5003;69154;52.076;5.110;2023-05-10T08:54:35;13;12;
72329;PMS5003;69154;52.076;5.110;2023-05-10T08:57:00;11;11;
72329;PMS5003;69154;52.076;5.110;2023-05-10T08:59:25;15;14;
72329;PMS5003;69154;52.076;5.110;2023-05-10T09:01:50;12;11;
72329;PMS5003;69154;52.076;5.110;2023-05-10T09:04:16;13;11;
72329;PMS5003;69154;52.076;5.110;2023-05-10T09:06:42;12;12;
72329;PMS5003;69154;52.076;5.110;2023-05-10T09:09:07;8;8;
72329;PMS5003;69154;52.076;5.110;2023-05-10T09:11:33;12;11;
72329;PMS5003;69154;52.076;5.110;2023-05-10T09:13:59;11;11;
72329;PMS5003;69154;52.076;5.110;2023-05-10T09:16:25;17;17;
72329;PMS5003;69154;52.076;5.110;2023-05-10T09:18:50;12;11;
72329;PMS5003;69154;52.076;5.110;2023-05-10T09:21:16;11;10;
72329;PMS5003;69154;52.076;5.110;2023-05-10T09:23:42;10;9;
72329;PMS5003;69154;52.076;5.110;2023-05-10T09:26:07;7;7;
72329;PMS5003;69154;52.076;5.110;2023-05-10T09:28:33;7;7;
72329;PMS5003;69154;52.076;5.110;2023-05-10T09:30:59;10;8;
72329;PMS5003;69154;52.076;5.110;2023-05-10T09:33:25;6;6;
72329;PMS5003;69154;52.076;5.110;2023-05-10T09:35:51;9;8;
72329;PMS5003;69154;52.076;5.110;2023-05-10T09:38:16;9;8;
72329;PMS5003;69154;52.076;5.110;2023-05-10T09:40:42;9;8;
72329;PMS5003;69154;52.076;5.110;2023-05-10T09:43:08;6;6;
72329;PMS5003;69154;52.076;5.110;2023-05-10T09:45:34;6;5;
72329;PMS5003;69154;52.076;5.110;2023-05-10T09:48:00;9;8;
72329;PMS5003;69154;52.076;5.110;2023-05-10T09:50:25;9;8;
72329;PMS5003;69154;52.076;5.110;2023-05-10T09:52:51;10;9;
72329;PMS5003;69154;52.076;5.110;2023-05-10T09:55:17;10;10;
72329;PMS5003;69154;52.076;5.110;2023-05-10T09:57:42;12;12;
72329;PMS5003;69154;52.076;5.110;2023-05-10T10:00:08;15;14;
72329;PMS5003;69154;52.076;5.110;2023-05-10T10:02:33;9;9;
72329;PMS5003;69154;52.076;5.110;2023-05-10T10:04:59;13;12;
72329;PMS5003;69154;52.076;5.110;2023-05-10T10:07:25;14;12;
72329;PMS5003;69154;52.076;5.110;2023-05-10T10:09:50;8;7;
72329;PMS5003;69154;52.076;5.110;2023-05-10T10:12:15;9;9;
72329;PMS5003;69154;52.076;5.110;2023-05-10T10:14:40;8;7;
72329;PMS5003;69154;52.076;5.110;2023-05-10T10:17:05;10;10;
72329;PMS5003;69154;52.076;5.110;2023-05-10T10:19:31;12;11;
72329;PMS5003;69154;52.076;5.110;2023-05-10T10:21:56;12;11;
72329;PMS5003;69154;52.076;5.110;2023-05-10T10:24:22;11;10;
72329;PMS5003;69154;52.076;5.110;2023-05-10T10:26:48;8;8;
72329;PMS5003;69154;52.076;5.110;2023-05-10T10:29:18;9;9;
72329;PMS5003;69154;52.076;5.110;2023-05-10T10:31:40;12;10;
72329;PMS5003;69154;52.076;5.110;2023-05-10T10:34:05;9;9;
72329;PMS5003;69154;52.076;5.110;2023-05-10T10:36:31;10;9;
72329;PMS5003;69154;52.076;5.110;2023-05-10T10:38:57;15;11;
72329;PMS5003;69154;52.076;5.110;2023-05-10T10:41:27;10;10;
72329;PMS5003;69154;52.076;5.110;2023-05-10T10:43:47;12;11;
72329;PMS5003;69154;52.076;5.110;2023-05-10T10:46:14;11;10;
72329;PMS5003;69154;52.076;5.110;2023-05-10T10:48:39;10;10;
72329;PMS5003;69154;52.076;5.110;2023-05-10T10:51:05;10;9;
72329;PMS5003;69154;52.076;5.110;2023-05-10T10:53:30;9;9;
72329;PMS5003;69154;52.076;5.110;2023-05-10T10:56:12;10;10;
72329;PMS5003;69154;52.076;5.110;2023-05-10T10:58:29;13;13;
72329;PMS5003;69154;52.076;5.110;2023-05-10T11:00:47;9;9;
72329;PMS5003;69154;52.076;5.110;2023-05-10T11:03:12;7;7;
72329;PMS5003;69154;52.076;5.110;2023-05-10T11:05:40;9;7;
72329;PMS5003;69154;52.076;5.110;2023-05-10T11:08:09;8;8;
72329;PMS5003;69154;52.076;5.110;2023-05-10T11:10:29;8;8;
72329;PMS5003;69154;52.076;5.110;2023-05-10T11:12:58;9;8;
72329;PMS5003;69154;52.076;5.110;2023-05-10T11:15:28;8;8;
72329;PMS5003;69154;52.076;5.110;2023-05-10T11:17:47;7;7;
72329;PMS5003;69154;52.076;5.110;2023-05-10T11:20:14;12;10;
72329;PMS5003;69154;52.076;5.110;2023-05-10T11:22:53;10;9;
72329;PMS5003;69154;52.076;5.110;2023-05-10T11:25:03;9;8;
72329;PMS5003;69154;52.076;5.110;2023-05-10T11:27:29;6;6;
72329;PMS5003;69154;52.076;5.110;2023-05-10T11:29:54;6;5;
72329;PMS5003;69154;52.076;5.110;2023-05-10T11:32:20;9;9;
72329;PMS5003;69154;52.076;5.110;2023-05-10T11:34:46;6;6;
72329;PMS5003;69154;52.076;5.110;2023-05-10T11:37:12;6;5;
72329;PMS5003;69154;52.076;5.110;2023-05-10T11:39:37;5;5;
72329;PMS5003;69154;52.076;5.110;2023-05-10T11:42:03;7;7;
72329;PMS5003;69154;52.076;5.110;2023-05-10T11:44:29;7;7;
72329;PMS5003;69154;52.076;5.110;2023-05-10T11:46:57;7;6;
72329;PMS5003;69154;52.076;5.110;2023-05-10T11:49:21;7;6;
72329;PMS5003;69154;52.076;5.110;2023-05-10T11:51:46;6;6;
72329;PMS5003;69154;52.076;5.110;2023-05-10T11:54:12;12;11;
72329;PMS5003;69154;52.076;5.110;2023-05-10T11:56:38;14;13;
72329;PMS5003;69154;52.076;5.110;2023-05-10T11:59:05;13;13;
72329;PMS5003;69154;52.076;5.110;2023-05-10T12:01:29;17;16;
72329;PMS5003;69154;52.076;5.110;2023-05-10T12:03:55;14;14;
72329;PMS5003;69154;52.076;5.110;2023-05-10T12:06:21;18;18;
72329;PMS5003;69154;52.076;5.110;2023-05-10T12:08:47;20;18;
72329;PMS5003;69154;52.076;5.110;2023-05-10T12:11:13;17;17;
72329;PMS5003;69154;52.076;5.110;2023-05-10T12:13:38;18;17;
72329;PMS5003;69154;52.076;5.110;2023-05-10T12:16:12;20;20;
72329;PMS5003;69154;52.076;5.110;2023-05-10T12:18:29;21;19;
72329;PMS5003;69154;52.076;5.110;2023-05-10T12:20:55;18;17;
72329;PMS5003;69154;52.076;5.110;2023-05-10T12:23:20;18;18;
72329;PMS5003;69154;52.076;5.110;2023-05-10T12:25:46;18;17;
72329;PMS5003;69154;52.076;5.110;2023-05-10T12:28:12;18;17;
72329;PMS5003;69154;52.076;5.110;2023-05-10T12:30:37;21;21;
72329;PMS5003;69154;52.076;5.110;2023-05-10T12:33:02;23;21;
72329;PMS5003;69154;52.076;5.110;2023-05-10T12:35:29;23;22;
72329;PMS5003;69154;52.076;5.110;2023-05-10T12:37:53;26;25;
72329;PMS5003;69154;52.076;5.110;2023-05-10T12:40:18;24;21;
72329;PMS5003;69154;52.076;5.110;2023-05-10T12:42:43;26;24;
72329;PMS5003;69154;52.076;5.110;2023-05-10T12:45:08;26;24;
72329;PMS5003;69154;52.076;5.110;2023-05-10T12:47:34;30;28;
72329;PMS5003;69154;52.076;5.110;2023-05-10T12:50:00;27;26;
72329;PMS5003;69154;52.076;5.110;2023-05-10T12:52:25;22;20;
72329;PMS5003;69154;52.076;5.110;2023-05-10T12:54:50;29;26;
72329;PMS5003;69154;52.076;5.110;2023-05-10T12:57:16;24;22;
72329;PMS5003;69154;52.076;5.110;2023-05-10T12:59:41;25;22;
72329;PMS5003;69154;52.076;5.110;2023-05-10T13:02:08;28;26;
72329;PMS5003;69154;52.076;5.110;2023-05-10T13:04:32;30;26;
72329;PMS5003;69154;52.076;5.110;2023-05-10T13:06:58;30;28;
72329;PMS5003;69154;52.076;5.110;2023-05-10T13:09:23;23;21;
72329;PMS5003;69154;52.076;5.110;2023-05-10T13:11:48;25;24;
72329;PMS5003;69154;52.076;5.110;2023-05-10T13:14:14;30;29;
72329;PMS5003;69154;52.076;5.110;2023-05-10T13:16:39;27;26;
72329;PMS5003;69154;52.076;5.110;2023-05-10T13:19:04;23;21;
72329;PMS5003;69154;52.076;5.110;2023-05-10T13:21:30;24;24;
72329;PMS5003;69154;52.076;5.110;2023-05-10T13:23:55;21;20;
72329;PMS5003;69154;52.076;5.110;2023-05-10T13:26:20;26;23;
72329;PMS5003;69154;52.076;5.110;2023-05-10T13:28:45;20;19;
72329;PMS5003;69154;52.076;5.110;2023-05-10T13:31:11;21;20;
72329;PMS5003;69154;52.076;5.110;2023-05-10T13:33:36;23;21;
72329;PMS5003;69154;52.076;5.110;2023-05-10T13:36:02;24;20;
72329;PMS5003;69154;52.076;5.110;2023-05-10T13:38:28;23;21;
72329;PMS5003;69154;52.076;5.110;2023-05-10T13:40:53;22;22;
72329;PMS5003;69154;52.076;5.110;2023-05-10T13:43:18;21;20;
72329;PMS5003;69154;52.076;5.110;2023-05-10T13:45:44;20;19;
72329;PMS5003;69154;52.076;5.110;2023-05-10T13:48:09;23;22;
72329;PMS5003;69154;52.076;5.110;2023-05-10T13:50:35;26;23;
72329;PMS5003;69154;52.076;5.110;2023-05-10T13:53:00;30;28;
72329;PMS5003;69154;52.076;5.110;2023-05-10T13:55:25;16;16;
72329;PMS5003;69154;52.076;5.110;2023-05-10T13:57:51;22;19;
72329;PMS5003;69154;52.076;5.110;2023-05-10T14:00:16;19;18;
72329;PMS5003;69154;52.076;5.110;2023-05-10T14:02:42;18;17;
72329;PMS5003;69154;52.076;5.110;2023-05-10T14:05:08;22;22;
72329;PMS5003;69154;52.076;5.110;2023-05-10T14:07:33;16;16;
72329;PMS5003;69154;52.076;5.110;2023-05-10T14:09:58;16;16;
72329;PMS5003;69154;52.076;5.110;2023-05-10T14:12:24;17;16;
72329;PMS5003;69154;52.076;5.110;2023-05-10T14:14:49;21;18;
72329;PMS5003;69154;52.076;5.110;2023-05-10T14:17:15;18;17;
72329;PMS5003;69154;52.076;5.110;2023-05-10T14:19:41;18;17;
72329;PMS5003;69154;52.076;5.110;2023-05-10T14:22:06;16;15;
72329;PMS5003;69154;52.076;5.110;2023-05-10T14:24:31;14;13;
72329;PMS5003;69154;52.076;5.110;2023-05-10T14:26:57;14;14;
72329;PMS5003;69154;52.076;5.110;2023-05-10T14:29:22;14;14;
72329;PMS5003;69154;52.076;5.110;2023-05-10T14:31:48;16;15;
72329;PMS5003;69154;52.076;5.110;2023-05-10T14:34:14;19;19;
72329;PMS5003;69154;52.076;5.110;2023-05-10T14:36:38;15;15;
72329;PMS5003;69154;52.076;5.110;2023-05-10T14:39:04;20;19;
72329;PMS5003;69154;52.076;5.110;2023-05-10T14:41:29;15;14;
72329;PMS5003;69154;52.076;5.110;2023-05-10T14:43:55;20;19;
72329;PMS5003;69154;52.076;5.110;2023-05-10T14:46:20;20;20;
72329;PMS5003;69154;52.076;5.110;2023-05-10T14:48:46;27;22;
72329;PMS5003;69154;52.076;5.110;2023-05-10T14:51:11;16;14;
72329;PMS5003;69154;52.076;5.110;2023-05-10T14:53:36;21;19;
72329;PMS5003;69154;52.076;5.110;2023-05-10T14:56:01;16;15;
72329;PMS5003;69154;52.076;5.110;2023-05-10T14:58:26;15;13;
72329;PMS5003;69154;52.076;5.110;2023-05-10T15:00:52;16;15;
72329;PMS5003;69154;52.076;5.110;2023-05-10T15:03:17;17;16;
72329;PMS5003;69154;52.076;5.110;2023-05-10T15:05:42;13;13;
72329;PMS5003;69154;52.076;5.110;2023-05-10T15:08:08;21;19;
72329;PMS5003;69154;52.076;5.110;2023-05-10T15:10:33;19;18;
72329;PMS5003;69154;52.076;5.110;2023-05-10T15:12:58;17;16;
72329;PMS5003;69154;52.076;5.110;2023-05-10T15:15:24;15;15;
72329;PMS5003;69154;52.076;5.110;2023-05-10T15:17:49;16;14;
72329;PMS5003;69154;52.076;5.110;2023-05-10T15:20:14;14;12;
72329;PMS5003;69154;52.076;5.110;2023-05-10T15:22:40;16;16;
72329;PMS5003;69154;52.076;5.110;2023-05-10T15:25:05;17;15;
72329;PMS5003;69154;52.076;5.110;2023-05-10T15:27:30;17;14;
72329;PMS5003;69154;52.076;5.110;2023-05-10T15:29:55;18;17;
72329;PMS5003;69154;52.076;5.110;2023-05-10T15:32:21;19;18;
72329;PMS5003;69154;52.076;5.110;2023-05-10T15:34:46;17;17;
72329;PMS5003;69154;52.076;5.110;2023-05-10T15:37:11;15;15;
72329;PMS5003;69154;52.076;5.110;2023-05-10T15:39:37;17;16;
72329;PMS5003;69154;52.076;5.110;2023-05-10T15:42:03;22;20;
72329;PMS5003;69154;52.076;5.110;2023-05-10T15:44:28;19;17;
72329;PMS5003;69154;52.076;5.110;2023-05-10T15:46:54;17;17;
72329;PMS5003;69154;52.076;5.110;2023-05-10T15:49:19;20;18;
72329;PMS5003;69154;52.076;5.110;2023-05-10T15:51:45;21;19;
72329;PMS5003;69154;52.076;5.110;2023-05-10T15:54:10;25;22;
72329;PMS5003;69154;52.076;5.110;2023-05-10T15:56:35;26;24;
72329;PMS5003;69154;52.076;5.110;2023-05-10T15:59:01;22;17;
72329;PMS5003;69154;52.076;5.110;2023-05-10T16:01:27;20;19;
72329;PMS5003;69154;52.076;5.110;2023-05-10T16:03:52;17;16;
72329;PMS5003;69154;52.076;5.110;2023-05-10T16:06:18;20;17;
72329;PMS5003;69154;52.076;5.110;2023-05-10T16:08:44;19;17;